createdAt,value
2019-06-26T00:00:46.654Z,0.00
2019-06-26T00:01:46.650Z,0.00
2019-06-26T00:02:46.652Z,0.00
2019-06-26T00:03:46.645Z,0.00
2019-06-26T00:04:46.643Z,0.00
2019-06-26T00:05:46.639Z,0.00
2019-06-26T00:06:46.641Z,0.00
2019-06-26T00:07:46.636Z,0.00
2019-06-26T00:08:46.631Z,0.00
2019-06-26T00:09:46.665Z,0.00
2019-06-26T00:10:46.625Z,0.00
2019-06-26T00:11:46.633Z,0.00
2019-06-26T00:12:46.626Z,0.00
2019-06-26T00:13:46.624Z,0.00
2019-06-26T00:14:46.618Z,0.00
2019-06-26T00:15:46.637Z,0.00
2019-06-26T00:16:46.608Z,0.00
2019-06-26T00:17:46.607Z,0.00
2019-06-26T00:18:46.603Z,0.00
2019-06-26T00:19:46.600Z,0.00
2019-06-26T00:20:46.598Z,0.00
2019-06-26T00:21:46.612Z,0.00
2019-06-26T00:22:46.592Z,0.00
2019-06-26T00:23:46.641Z,0.00
2019-06-26T00:24:46.589Z,0.00
2019-06-26T00:25:46.594Z,0.00
2019-06-26T00:26:46.594Z,0.00
2019-06-26T00:27:46.580Z,0.00
2019-06-26T00:28:46.578Z,0.00
2019-06-26T00:29:46.572Z,0.00
2019-06-26T00:30:46.571Z,0.00
2019-06-26T00:31:46.571Z,0.00
2019-06-26T00:32:46.571Z,0.00
2019-06-26T00:33:46.562Z,0.00
2019-06-26T00:34:46.569Z,0.00
2019-06-26T00:35:46.554Z,0.00
2019-06-26T00:36:46.562Z,0.00
2019-06-26T00:37:46.549Z,0.00
2019-06-26T00:38:46.546Z,0.00
2019-06-26T00:39:46.584Z,0.00
2019-06-26T00:40:46.540Z,0.00
2019-06-26T00:41:46.542Z,0.00
2019-06-26T00:42:46.534Z,0.00
2019-06-26T00:43:46.532Z,0.00
2019-06-26T00:44:46.528Z,0.00
2019-06-26T00:45:46.527Z,0.00
2019-06-26T00:46:46.523Z,0.00
2019-06-26T00:47:46.527Z,0.00
2019-06-26T00:48:46.517Z,0.00
2019-06-26T00:49:46.514Z,0.00
2019-06-26T00:50:46.511Z,0.00
2019-06-26T00:51:46.581Z,0.00
2019-06-26T00:52:46.504Z,0.00
2019-06-26T00:53:46.501Z,0.00
2019-06-26T00:54:46.506Z,0.00
2019-06-26T00:55:46.495Z,0.00
2019-06-26T00:56:46.493Z,0.00
2019-06-26T00:57:46.491Z,0.00
2019-06-26T00:58:46.485Z,0.00
2019-06-26T00:59:46.487Z,0.00
2019-06-26T01:00:46.485Z,0.00
2019-06-26T01:01:46.484Z,0.00
2019-06-26T01:02:46.478Z,0.00
2019-06-26T01:03:46.472Z,0.00
2019-06-26T01:04:46.468Z,0.00
2019-06-26T01:05:46.465Z,0.00
2019-06-26T01:06:46.461Z,0.00
2019-06-26T01:07:46.460Z,0.00
2019-06-26T01:08:46.456Z,0.00
2019-06-26T01:09:46.453Z,0.00
2019-06-26T01:10:46.451Z,0.00
2019-06-26T01:11:46.449Z,0.00
2019-06-26T01:12:46.444Z,0.00
2019-06-26T01:13:57.578Z,0.00
2019-06-26T01:14:46.439Z,0.00
2019-06-26T01:15:46.434Z,0.00
2019-06-26T01:16:46.435Z,0.00
2019-06-26T01:17:46.428Z,0.00
2019-06-26T01:18:46.433Z,0.00
2019-06-26T01:19:46.423Z,0.00
2019-06-26T01:20:46.420Z,0.00
2019-06-26T01:21:46.418Z,0.00
2019-06-26T01:22:46.412Z,0.00
2019-06-26T01:23:46.409Z,0.00
2019-06-26T01:24:46.410Z,0.00
2019-06-26T01:25:46.403Z,0.00
2019-06-26T01:26:46.401Z,0.00
2019-06-26T01:27:46.396Z,0.00
2019-06-26T01:28:46.400Z,0.00
2019-06-26T01:29:46.392Z,0.00
2019-06-26T01:30:46.387Z,0.00
2019-06-26T01:31:46.385Z,0.00
2019-06-26T01:32:46.383Z,0.00
2019-06-26T01:33:46.377Z,0.00
2019-06-26T01:34:46.374Z,0.00
2019-06-26T01:35:46.373Z,0.00
2019-06-26T01:36:46.368Z,0.00
2019-06-26T01:37:46.365Z,0.00
2019-06-26T01:38:46.370Z,0.00
2019-06-26T01:39:46.359Z,0.00
2019-06-26T01:40:46.356Z,0.00
2019-06-26T01:41:46.352Z,0.00
2019-06-26T01:42:46.348Z,0.00
2019-06-26T01:43:46.345Z,0.00
2019-06-26T01:44:46.342Z,0.00
2019-06-26T01:45:46.343Z,0.00
2019-06-26T01:46:46.335Z,0.00
2019-06-26T01:47:46.333Z,0.00
2019-06-26T01:48:46.330Z,0.00
2019-06-26T01:49:46.326Z,0.00
2019-06-26T01:50:46.321Z,0.00
2019-06-26T01:51:46.319Z,0.00
2019-06-26T01:52:46.320Z,0.00
2019-06-26T01:53:46.313Z,0.00
2019-06-26T01:54:46.313Z,0.00
2019-06-26T01:55:46.306Z,0.00
2019-06-26T01:56:46.302Z,0.00
2019-06-26T01:57:46.299Z,0.00
2019-06-26T01:58:46.301Z,0.00
2019-06-26T01:59:46.291Z,0.00
2019-06-26T02:00:46.290Z,0.00
2019-06-26T02:01:46.288Z,0.00
2019-06-26T02:02:46.314Z,0.00
2019-06-26T02:03:46.280Z,0.00
2019-06-26T02:04:46.627Z,0.00
2019-06-26T02:05:46.271Z,0.00
2019-06-26T02:06:46.267Z,0.00
2019-06-26T02:07:46.267Z,0.00
2019-06-26T02:08:46.262Z,0.00
2019-06-26T02:09:46.361Z,0.00
2019-06-26T02:10:46.254Z,0.00
2019-06-26T02:11:46.250Z,0.00
2019-06-26T02:12:46.248Z,0.00
2019-06-26T02:13:46.244Z,0.00
2019-06-26T02:14:46.241Z,0.00
2019-06-26T02:15:46.240Z,0.00
2019-06-26T02:16:46.237Z,0.00
2019-06-26T02:17:46.233Z,0.00
2019-06-26T02:18:46.226Z,0.00
2019-06-26T02:19:46.623Z,0.00
2019-06-26T02:20:46.221Z,0.00
2019-06-26T02:21:46.229Z,0.00
2019-06-26T02:22:49.450Z,0.00
2019-06-26T02:23:46.209Z,0.00
2019-06-26T02:24:46.208Z,0.00
2019-06-26T02:25:46.210Z,0.00
2019-06-26T02:26:46.197Z,0.00
2019-06-26T02:27:46.198Z,0.00
2019-06-26T02:28:46.192Z,0.00
2019-06-26T02:29:46.189Z,0.00
2019-06-26T02:30:46.191Z,0.00
2019-06-26T02:31:46.183Z,0.00
2019-06-26T02:32:46.184Z,0.00
2019-06-26T02:33:46.176Z,0.00
2019-06-26T02:34:46.170Z,0.00
2019-06-26T02:35:46.171Z,0.00
2019-06-26T02:36:46.162Z,0.00
2019-06-26T02:37:46.160Z,0.00
2019-06-26T02:38:46.159Z,0.00
2019-06-26T02:39:46.152Z,0.00
2019-06-26T02:40:46.149Z,0.00
2019-06-26T02:41:46.145Z,0.00
2019-06-26T02:42:46.141Z,4.00
2019-06-26T02:43:46.136Z,4.00
2019-06-26T02:44:53.078Z,4.00
2019-06-26T02:45:46.130Z,0.00
2019-06-26T02:46:46.141Z,4.00
2019-06-26T02:47:46.122Z,4.00
2019-06-26T02:48:46.118Z,4.00
2019-06-26T02:49:46.215Z,4.00
2019-06-26T02:50:46.109Z,4.00
2019-06-26T02:51:46.112Z,4.00
2019-06-26T02:52:46.105Z,8.00
2019-06-26T02:53:46.105Z,8.00
2019-06-26T02:54:46.203Z,8.00
2019-06-26T02:55:46.095Z,8.00
2019-06-26T02:56:46.088Z,12.00
2019-06-26T02:57:46.084Z,12.00
2019-06-26T02:58:46.079Z,12.00
2019-06-26T02:59:46.083Z,16.00
2019-06-26T03:00:46.074Z,16.00
2019-06-26T03:01:46.071Z,20.00
2019-06-26T03:02:46.065Z,20.00
2019-06-26T03:03:46.063Z,28.00
2019-06-26T03:04:46.060Z,28.00
2019-06-26T03:05:46.053Z,32.00
2019-06-26T03:06:46.061Z,36.00
2019-06-26T03:07:46.048Z,40.00
2019-06-26T03:08:46.044Z,44.00
2019-06-26T03:09:46.038Z,48.00
2019-06-26T03:10:46.041Z,52.00
2019-06-26T03:11:46.030Z,60.00
2019-06-26T03:12:46.035Z,68.00
2019-06-26T03:13:46.023Z,72.00
2019-06-26T03:14:46.018Z,80.00
2019-06-26T03:15:46.019Z,88.00
2019-06-26T03:16:46.012Z,96.00
2019-06-26T03:17:55.259Z,100.00
2019-06-26T03:18:46.003Z,112.00
2019-06-26T03:19:45.999Z,120.00
2019-06-26T03:20:46.083Z,132.00
2019-06-26T03:21:46.017Z,140.00
2019-06-26T03:22:45.989Z,152.00
2019-06-26T03:23:45.985Z,164.00
2019-06-26T03:24:45.984Z,176.00
2019-06-26T03:25:45.980Z,188.00
2019-06-26T03:26:45.973Z,200.00
2019-06-26T03:27:45.969Z,212.00
2019-06-26T03:28:45.966Z,228.00
2019-06-26T03:29:45.965Z,240.00
2019-06-26T03:30:45.960Z,256.00
2019-06-26T03:31:45.958Z,272.00
2019-06-26T03:32:45.951Z,288.00
2019-06-26T03:33:45.950Z,304.00
2019-06-26T03:34:45.944Z,320.00
2019-06-26T03:35:45.938Z,340.00
2019-06-26T03:36:45.935Z,360.00
2019-06-26T03:37:45.931Z,376.00
2019-06-26T03:38:45.925Z,396.00
2019-06-26T03:39:45.924Z,416.00
2019-06-26T03:40:45.919Z,436.00
2019-06-26T03:41:45.914Z,460.00
2019-06-26T03:42:45.910Z,484.00
2019-06-26T03:43:45.942Z,504.00
2019-06-26T03:44:45.902Z,528.00
2019-06-26T03:45:45.899Z,552.00
2019-06-26T03:46:45.918Z,572.00
2019-06-26T03:47:45.891Z,600.00
2019-06-26T03:48:45.886Z,628.00
2019-06-26T03:49:45.883Z,652.00
2019-06-26T03:50:45.881Z,680.00
2019-06-26T03:51:45.900Z,704.00
2019-06-26T03:52:45.871Z,736.00
2019-06-26T03:53:45.867Z,764.00
2019-06-26T03:54:45.864Z,796.00
2019-06-26T03:55:45.860Z,828.00
2019-06-26T03:56:45.858Z,856.00
2019-06-26T03:57:45.852Z,884.00
2019-06-26T03:58:45.847Z,916.00
2019-06-26T03:59:45.843Z,948.00
2019-06-26T04:00:45.861Z,976.00
2019-06-26T04:01:45.840Z,1008.00
2019-06-26T04:02:45.833Z,1044.00
2019-06-26T04:03:45.831Z,1072.00
2019-06-26T04:04:45.831Z,1108.00
2019-06-26T04:05:45.825Z,1140.00
2019-06-26T04:06:45.822Z,1172.00
2019-06-26T04:07:45.818Z,1204.00
2019-06-26T04:08:45.891Z,1240.00
2019-06-26T04:09:45.807Z,1276.00
2019-06-26T04:10:45.802Z,1312.00
2019-06-26T04:11:45.795Z,1348.00
2019-06-26T04:12:45.800Z,1388.00
2019-06-26T04:13:45.798Z,1428.00
2019-06-26T04:14:45.784Z,1460.00
2019-06-26T04:15:45.780Z,1500.00
2019-06-26T04:16:45.777Z,1540.00
2019-06-26T04:17:45.773Z,1580.00
2019-06-26T04:18:45.794Z,1624.00
2019-06-26T04:19:45.768Z,1664.00
2019-06-26T04:20:45.761Z,1708.00
2019-06-26T04:21:45.756Z,1752.00
2019-06-26T04:22:47.684Z,1792.00
2019-06-26T04:23:45.748Z,1840.00
2019-06-26T04:24:45.747Z,1880.00
2019-06-26T04:25:45.741Z,1920.00
2019-06-26T04:26:45.735Z,1972.00
2019-06-26T04:27:45.778Z,2024.00
2019-06-26T04:28:45.734Z,2076.00
2019-06-26T04:29:45.727Z,2128.00
2019-06-26T04:30:45.723Z,2188.00
2019-06-26T04:31:45.720Z,2252.00
2019-06-26T04:32:45.712Z,2308.00
2019-06-26T04:33:45.711Z,2352.00
2019-06-26T04:34:45.703Z,2400.00
2019-06-26T04:35:45.700Z,2448.00
2019-06-26T04:36:45.717Z,2492.00
2019-06-26T04:37:45.692Z,2540.00
2019-06-26T04:38:45.687Z,2576.00
2019-06-26T04:39:45.683Z,2648.00
2019-06-26T04:40:45.685Z,2712.00
2019-06-26T04:41:45.678Z,2772.00
2019-06-26T04:42:45.672Z,2828.00
2019-06-26T04:43:45.669Z,2888.00
2019-06-26T04:44:45.667Z,2924.00
2019-06-26T04:45:57.550Z,2972.00
2019-06-26T04:46:45.656Z,3016.00
2019-06-26T04:47:45.657Z,3068.00
2019-06-26T04:48:45.649Z,3132.00
2019-06-26T04:49:45.645Z,3184.00
2019-06-26T04:50:45.641Z,3240.00
2019-06-26T04:51:45.668Z,3300.00
2019-06-26T04:52:45.632Z,3372.00
2019-06-26T04:53:45.629Z,3424.00
2019-06-26T04:54:45.624Z,3480.00
2019-06-26T04:55:45.621Z,3528.00
2019-06-26T04:56:45.617Z,3584.00
2019-06-26T04:57:45.735Z,3644.00
2019-06-26T04:58:45.609Z,3692.00
2019-06-26T04:59:45.605Z,3760.00
2019-06-26T05:00:45.632Z,3836.00
2019-06-26T05:01:45.598Z,3888.00
2019-06-26T05:02:45.593Z,3880.00
2019-06-26T05:03:45.592Z,3888.00
2019-06-26T05:04:45.586Z,3892.00
2019-06-26T05:05:45.587Z,3908.00
2019-06-26T05:06:45.578Z,3892.00
2019-06-26T05:07:45.576Z,3920.00
2019-06-26T05:08:45.571Z,4004.00
2019-06-26T05:09:45.569Z,4112.00
2019-06-26T05:10:45.568Z,4220.00
2019-06-26T05:11:45.560Z,4344.00
2019-06-26T05:12:45.560Z,4404.00
2019-06-26T05:13:45.565Z,4492.00
2019-06-26T05:14:45.548Z,4616.00
2019-06-26T05:15:45.545Z,4636.00
2019-06-26T05:16:45.542Z,4692.00
2019-06-26T05:17:45.537Z,4768.00
2019-06-26T05:18:45.545Z,4836.00
2019-06-26T05:19:45.529Z,4884.00
2019-06-26T05:20:45.526Z,4964.00
2019-06-26T05:21:45.526Z,5076.00
2019-06-26T05:22:45.526Z,5144.00
2019-06-26T05:23:45.515Z,5188.00
2019-06-26T05:24:46.498Z,5248.00
2019-06-26T05:25:45.508Z,5324.00
2019-06-26T05:26:45.503Z,5312.00
2019-06-26T05:27:45.501Z,5344.00
2019-06-26T05:28:45.497Z,5416.00
2019-06-26T05:29:45.494Z,5436.00
2019-06-26T05:30:45.591Z,5464.00
2019-06-26T05:31:45.486Z,5524.00
2019-06-26T05:32:45.844Z,5532.00
2019-06-26T05:33:45.483Z,5568.00
2019-06-26T05:34:45.479Z,5640.00
2019-06-26T05:35:45.473Z,5700.00
2019-06-26T05:36:45.469Z,5788.00
2019-06-26T05:37:45.467Z,5908.00
2019-06-26T05:38:45.464Z,5964.00
2019-06-26T05:39:45.459Z,5928.00
2019-06-26T05:40:45.458Z,5980.00
2019-06-26T05:41:45.512Z,6080.00
2019-06-26T05:42:45.452Z,6128.00
2019-06-26T05:43:45.453Z,6192.00
2019-06-26T05:44:45.442Z,6308.00
2019-06-26T05:45:45.440Z,6440.00
2019-06-26T05:46:45.450Z,6640.00
2019-06-26T05:47:45.433Z,6708.00
2019-06-26T05:48:45.435Z,6820.00
2019-06-26T05:49:45.427Z,6908.00
2019-06-26T05:50:45.423Z,7092.00
2019-06-26T05:51:45.424Z,7168.00
2019-06-26T05:52:45.416Z,7204.00
2019-06-26T05:53:45.415Z,7264.00
2019-06-26T05:54:45.416Z,7408.00
2019-06-26T05:55:45.408Z,7284.00
2019-06-26T05:56:45.637Z,7352.00
2019-06-26T05:57:48.412Z,7424.00
2019-06-26T05:58:45.396Z,7492.00
2019-06-26T05:59:45.400Z,7640.00
2019-06-26T06:00:45.393Z,7824.00
2019-06-26T06:01:45.394Z,7972.00
2019-06-26T06:02:45.386Z,8128.00
2019-06-26T06:03:45.383Z,8176.00
2019-06-26T06:04:45.380Z,8136.00
2019-06-26T06:05:45.402Z,8260.00
2019-06-26T06:06:45.372Z,8324.00
2019-06-26T06:07:45.370Z,8388.00
2019-06-26T06:08:45.385Z,8424.00
2019-06-26T06:09:45.364Z,8476.00
2019-06-26T06:10:45.362Z,8480.00
2019-06-26T06:11:45.358Z,8220.00
2019-06-26T06:12:45.355Z,8144.00
2019-06-26T06:13:45.355Z,8112.00
2019-06-26T06:14:45.358Z,7960.00
2019-06-26T06:15:45.347Z,7924.00
2019-06-26T06:16:47.719Z,8072.00
2019-06-26T06:17:45.354Z,8144.00
2019-06-26T06:18:45.341Z,8196.00
2019-06-26T06:19:45.667Z,8220.00
2019-06-26T06:20:45.338Z,8368.00
2019-06-26T06:21:45.331Z,8440.00
2019-06-26T06:22:45.326Z,8516.00
2019-06-26T06:23:45.328Z,8660.00
2019-06-26T06:24:45.321Z,8740.00
2019-06-26T06:25:45.319Z,8744.00
2019-06-26T06:26:45.318Z,8724.00
2019-06-26T06:27:45.312Z,8824.00
2019-06-26T06:28:45.317Z,8832.00
2019-06-26T06:29:45.307Z,8772.00
2019-06-26T06:30:45.319Z,8696.00
2019-06-26T06:31:45.302Z,8788.00
2019-06-26T06:32:45.299Z,9360.00
2019-06-26T06:33:45.296Z,11096.00
2019-06-26T06:34:45.293Z,13556.00
2019-06-26T06:35:45.290Z,16096.00
2019-06-26T06:36:45.289Z,11480.00
2019-06-26T06:37:45.287Z,9448.00
2019-06-26T06:38:45.282Z,9396.00
2019-06-26T06:39:45.279Z,9412.00
2019-06-26T06:40:45.278Z,9552.00
2019-06-26T06:41:45.275Z,9552.00
2019-06-26T06:42:45.272Z,9504.00
2019-06-26T06:43:45.272Z,9544.00
2019-06-26T06:44:45.267Z,9680.00
2019-06-26T06:45:45.264Z,9876.00
2019-06-26T06:46:45.261Z,9920.00
2019-06-26T06:47:45.270Z,9980.00
2019-06-26T06:48:45.257Z,10136.00
2019-06-26T06:49:45.254Z,10272.00
2019-06-26T06:50:45.251Z,10296.00
2019-06-26T06:51:45.251Z,10236.00
2019-06-26T06:52:45.248Z,10696.00
2019-06-26T06:53:45.248Z,13200.00
2019-06-26T06:54:45.265Z,13664.00
2019-06-26T06:55:45.242Z,10944.00
2019-06-26T06:56:45.243Z,10788.00
2019-06-26T06:57:45.237Z,12884.00
2019-06-26T06:58:45.286Z,19232.00
2019-06-26T06:59:45.238Z,20352.00
2019-06-26T07:00:45.276Z,13592.00
2019-06-26T07:01:45.243Z,25184.00
2019-06-26T07:02:45.227Z,41472.00
2019-06-26T07:03:45.230Z,29792.00
2019-06-26T07:04:45.224Z,13396.00
2019-06-26T07:05:45.223Z,22112.00
2019-06-26T07:06:45.223Z,33184.00
2019-06-26T07:07:45.228Z,17952.00
2019-06-26T07:08:45.217Z,20192.00
2019-06-26T07:09:45.220Z,15748.00
2019-06-26T07:10:45.216Z,15520.00
2019-06-26T07:11:45.215Z,19072.00
2019-06-26T07:12:45.219Z,27552.00
2019-06-26T07:13:45.218Z,38944.00
2019-06-26T07:14:45.225Z,45888.00
2019-06-26T07:15:45.230Z,42464.00
2019-06-26T07:16:45.215Z,42912.00
2019-06-26T07:17:45.214Z,38464.00
2019-06-26T07:18:45.211Z,43008.00
2019-06-26T07:19:45.211Z,44704.00
2019-06-26T07:20:45.211Z,51232.00
2019-06-26T07:21:45.216Z,51776.00
2019-06-26T07:22:45.211Z,28992.00
2019-06-26T07:23:45.279Z,13704.00
2019-06-26T07:24:45.212Z,51008.00
2019-06-26T07:25:45.213Z,60192.00
2019-06-26T07:26:45.215Z,59712.00
2019-06-26T07:27:45.216Z,55648.00
2019-06-26T07:28:45.221Z,36608.00
2019-06-26T07:29:45.217Z,33408.00
2019-06-26T07:30:45.219Z,34080.00
2019-06-26T07:31:45.223Z,47488.00
2019-06-26T07:32:45.222Z,60320.00
2019-06-26T07:33:45.234Z,64096.00
2019-06-26T07:34:45.226Z,60736.00
2019-06-26T07:35:45.228Z,61472.00
2019-06-26T07:36:45.234Z,63776.00
2019-06-26T07:37:45.235Z,64544.00
2019-06-26T07:38:45.269Z,34240.00
2019-06-26T07:39:45.241Z,71168.00
2019-06-26T07:40:45.247Z,71776.00
2019-06-26T07:41:45.248Z,68288.00
2019-06-26T07:42:45.251Z,72544.00
2019-06-26T07:43:45.256Z,72960.00
2019-06-26T07:44:45.260Z,69472.00
2019-06-26T07:45:45.266Z,73440.00
2019-06-26T07:46:45.271Z,71360.00
2019-06-26T07:47:45.277Z,69728.00
2019-06-26T07:48:45.283Z,72288.00
2019-06-26T07:49:45.290Z,72224.00
2019-06-26T07:50:45.294Z,74400.00
2019-06-26T07:51:45.301Z,76064.00
2019-06-26T07:52:45.311Z,75360.00
2019-06-26T07:53:45.316Z,79520.00
2019-06-26T07:54:45.321Z,77920.00
2019-06-26T07:55:45.330Z,76224.00
2019-06-26T07:56:45.337Z,80480.00
2019-06-26T07:57:45.345Z,77536.00
2019-06-26T07:58:45.354Z,78944.00
2019-06-26T07:59:45.427Z,81504.00
2019-06-26T08:00:45.427Z,78304.00
2019-06-26T08:01:45.382Z,79488.00
2019-06-26T08:02:45.467Z,77376.00
2019-06-26T08:03:45.426Z,75104.00
2019-06-26T08:04:45.403Z,78176.00
2019-06-26T08:05:45.413Z,77856.00
2019-06-26T08:06:45.422Z,78720.00
2019-06-26T08:07:45.431Z,82400.00
2019-06-26T08:08:45.456Z,80800.00
2019-06-26T08:09:45.451Z,84832.00
2019-06-26T08:10:45.471Z,78880.00
2019-06-26T08:11:45.469Z,83136.00
2019-06-26T08:12:45.481Z,84032.00
2019-06-26T08:13:45.552Z,81408.00
2019-06-26T08:14:45.500Z,86048.00
2019-06-26T08:15:45.508Z,80576.00
2019-06-26T08:16:45.530Z,83200.00
2019-06-26T08:17:59.217Z,81216.00
2019-06-26T08:18:45.539Z,82848.00
2019-06-26T08:19:45.550Z,82112.00
2019-06-26T08:20:55.472Z,83968.00
2019-06-26T08:21:46.752Z,83424.00
2019-06-26T08:22:45.581Z,77184.00
2019-06-26T08:23:45.596Z,84160.00
2019-06-26T08:24:45.603Z,78048.00
2019-06-26T08:25:45.615Z,78720.00
2019-06-26T08:26:45.624Z,77216.00
2019-06-26T08:27:45.636Z,82560.00
2019-06-26T08:28:45.678Z,77408.00
2019-06-26T08:29:45.658Z,77312.00
2019-06-26T08:30:45.682Z,78112.00
2019-06-26T08:31:45.871Z,79392.00
2019-06-26T08:32:45.699Z,73376.00
2019-06-26T08:33:45.704Z,77248.00
2019-06-26T08:34:45.715Z,80672.00
2019-06-26T08:35:45.726Z,79648.00
2019-06-26T08:36:45.738Z,80032.00
2019-06-26T08:37:45.752Z,79872.00
2019-06-26T08:38:45.834Z,77216.00
2019-06-26T08:39:45.776Z,76672.00
2019-06-26T08:40:45.784Z,78240.00
2019-06-26T08:41:45.800Z,77440.00
2019-06-26T08:42:45.807Z,77984.00
2019-06-26T08:43:45.823Z,73120.00
2019-06-26T08:44:45.896Z,76320.00
2019-06-26T08:45:45.845Z,77760.00
2019-06-26T08:46:45.907Z,70528.00
2019-06-26T08:47:45.867Z,75872.00
2019-06-26T08:48:45.879Z,78464.00
2019-06-26T08:49:45.891Z,76640.00
2019-06-26T08:50:45.902Z,72832.00
2019-06-26T08:51:45.916Z,76512.00
2019-06-26T08:52:45.940Z,74816.00
2019-06-26T08:53:45.955Z,70464.00
2019-06-26T08:54:45.954Z,69888.00
2019-06-26T08:55:45.968Z,71392.00
2019-06-26T08:56:45.979Z,69920.00
2019-06-26T08:57:45.993Z,68416.00
2019-06-26T08:58:46.007Z,68864.00
2019-06-26T08:59:46.018Z,70656.00
2019-06-26T09:00:46.035Z,68192.00
2019-06-26T09:01:46.043Z,71840.00
2019-06-26T09:02:46.057Z,76928.00
2019-06-26T09:03:46.069Z,69952.00
2019-06-26T09:04:46.084Z,70528.00
2019-06-26T09:05:48.368Z,72864.00
2019-06-26T09:06:46.109Z,69728.00
2019-06-26T09:07:46.124Z,66272.00
2019-06-26T09:08:46.136Z,66976.00
2019-06-26T09:09:46.152Z,69760.00
2019-06-26T09:10:46.164Z,69600.00
2019-06-26T09:11:46.177Z,66080.00
2019-06-26T09:12:46.193Z,64288.00
2019-06-26T09:13:46.204Z,65408.00
2019-06-26T09:14:46.217Z,62560.00
2019-06-26T09:15:49.564Z,67328.00
2019-06-26T09:16:46.245Z,67776.00
2019-06-26T09:17:46.259Z,64000.00
2019-06-26T09:18:46.271Z,61216.00
2019-06-26T09:19:46.296Z,59968.00
2019-06-26T09:20:46.298Z,61184.00
2019-06-26T09:21:46.398Z,60384.00
2019-06-26T09:22:46.326Z,61536.00
2019-06-26T09:23:46.346Z,61056.00
2019-06-26T09:24:46.355Z,60416.00
2019-06-26T09:25:46.367Z,61280.00
2019-06-26T09:26:46.382Z,61248.00
2019-06-26T09:27:46.395Z,62592.00
2019-06-26T09:28:46.417Z,63840.00
2019-06-26T09:29:46.426Z,62880.00
2019-06-26T09:30:46.437Z,65952.00
2019-06-26T09:31:46.461Z,62944.00
2019-06-26T09:32:46.469Z,62560.00
2019-06-26T09:33:46.479Z,62944.00
2019-06-26T09:34:46.492Z,66240.00
2019-06-26T09:35:46.506Z,64224.00
2019-06-26T09:36:46.521Z,65120.00
2019-06-26T09:37:46.535Z,58144.00
2019-06-26T09:38:46.555Z,59232.00
2019-06-26T09:39:46.585Z,57632.00
2019-06-26T09:40:46.579Z,64160.00
2019-06-26T09:41:46.597Z,60544.00
2019-06-26T09:42:46.609Z,61760.00
2019-06-26T09:43:46.620Z,58240.00
2019-06-26T09:44:46.637Z,57216.00
2019-06-26T09:45:46.653Z,54976.00
2019-06-26T09:46:46.663Z,58720.00
2019-06-26T09:47:46.677Z,58304.00
2019-06-26T09:48:52.684Z,56416.00
2019-06-26T09:49:46.707Z,56864.00
2019-06-26T09:50:46.739Z,58752.00
2019-06-26T09:51:46.751Z,61824.00
2019-06-26T09:52:46.750Z,64960.00
2019-06-26T09:53:48.021Z,69664.00
2019-06-26T09:54:46.778Z,66528.00
2019-06-26T09:55:46.791Z,70048.00
2019-06-26T09:56:46.820Z,74208.00
2019-06-26T09:57:46.821Z,67648.00
2019-06-26T09:58:46.835Z,68032.00
2019-06-26T09:59:46.849Z,63040.00
2019-06-26T10:00:46.864Z,61216.00
2019-06-26T10:01:46.880Z,62016.00
2019-06-26T10:02:46.893Z,57248.00
2019-06-26T10:03:46.905Z,54272.00
2019-06-26T10:04:46.921Z,54976.00
2019-06-26T10:05:46.958Z,52896.00
2019-06-26T10:06:46.949Z,54592.00
2019-06-26T10:07:46.962Z,52352.00
2019-06-26T10:08:46.980Z,52896.00
2019-06-26T10:09:46.999Z,54880.00
2019-06-26T10:10:47.065Z,54112.00
2019-06-26T10:11:47.050Z,53024.00
2019-06-26T10:12:47.033Z,55488.00
2019-06-26T10:13:47.049Z,54848.00
2019-06-26T10:14:48.214Z,56768.00
2019-06-26T10:15:47.079Z,56128.00
2019-06-26T10:16:47.090Z,56928.00
2019-06-26T10:17:47.105Z,54976.00
2019-06-26T10:18:47.121Z,55488.00
2019-06-26T10:19:47.134Z,56448.00
2019-06-26T10:20:47.148Z,55328.00
2019-06-26T10:21:47.167Z,54624.00
2019-06-26T10:22:47.179Z,56256.00
2019-06-26T10:23:47.193Z,55200.00
2019-06-26T10:24:47.205Z,54720.00
2019-06-26T10:25:47.248Z,54080.00
2019-06-26T10:26:47.233Z,55232.00
2019-06-26T10:27:47.247Z,55616.00
2019-06-26T10:28:47.263Z,56832.00
2019-06-26T10:29:47.276Z,53888.00
2019-06-26T10:30:47.292Z,56320.00
2019-06-26T10:31:47.306Z,55296.00
2019-06-26T10:32:47.319Z,58336.00
2019-06-26T10:33:47.334Z,56512.00
2019-06-26T10:34:47.364Z,56928.00
2019-06-26T10:35:47.375Z,54752.00
2019-06-26T10:36:47.377Z,58304.00
2019-06-26T10:37:47.391Z,56640.00
2019-06-26T10:38:47.411Z,57664.00
2019-06-26T10:39:47.422Z,56352.00
2019-06-26T10:40:47.435Z,60256.00
2019-06-26T10:41:47.447Z,56576.00
2019-06-26T10:42:47.464Z,60256.00
2019-06-26T10:43:47.474Z,56352.00
2019-06-26T10:44:47.531Z,59808.00
2019-06-26T10:45:47.503Z,58720.00
2019-06-26T10:46:47.516Z,60416.00
2019-06-26T10:47:47.549Z,59904.00
2019-06-26T10:48:47.547Z,63712.00
2019-06-26T10:49:47.559Z,59872.00
2019-06-26T10:50:53.446Z,63872.00
2019-06-26T10:51:47.631Z,61120.00
2019-06-26T10:52:47.602Z,62080.00
2019-06-26T10:53:47.617Z,61312.00
2019-06-26T10:54:47.631Z,62976.00
2019-06-26T10:55:47.647Z,60960.00
2019-06-26T10:56:47.658Z,61984.00
2019-06-26T10:57:47.673Z,58656.00
2019-06-26T10:58:47.711Z,59840.00
2019-06-26T10:59:47.700Z,60128.00
2019-06-26T11:00:47.717Z,61536.00
2019-06-26T11:01:47.763Z,61632.00
2019-06-26T11:02:47.745Z,62016.00
2019-06-26T11:03:47.757Z,61088.00
2019-06-26T11:04:47.779Z,61504.00
2019-06-26T11:05:47.788Z,61920.00
2019-06-26T11:06:47.802Z,61216.00
2019-06-26T11:07:47.816Z,60032.00
2019-06-26T11:08:47.832Z,59456.00
2019-06-26T11:09:47.846Z,59232.00
2019-06-26T11:10:47.860Z,60000.00
2019-06-26T11:11:47.879Z,59040.00
2019-06-26T11:12:49.072Z,57888.00
2019-06-26T11:13:47.915Z,57760.00
2019-06-26T11:14:47.928Z,54720.00
2019-06-26T11:15:47.937Z,55744.00
2019-06-26T11:16:47.948Z,56256.00
2019-06-26T11:17:47.965Z,56832.00
2019-06-26T11:18:47.976Z,56256.00
2019-06-26T11:19:47.990Z,57120.00
2019-06-26T11:20:48.017Z,54656.00
2019-06-26T11:21:48.028Z,52288.00
2019-06-26T11:22:48.038Z,52160.00
2019-06-26T11:23:48.048Z,51680.00
2019-06-26T11:24:48.104Z,52448.00
2019-06-26T11:25:48.078Z,55712.00
2019-06-26T11:26:48.090Z,56736.00
2019-06-26T11:27:48.105Z,55968.00
2019-06-26T11:28:48.119Z,58016.00
2019-06-26T11:29:48.133Z,59808.00
2019-06-26T11:30:48.148Z,62432.00
2019-06-26T11:31:48.162Z,60320.00
2019-06-26T11:32:48.202Z,61440.00
2019-06-26T11:33:48.302Z,60864.00
2019-06-26T11:34:48.203Z,57728.00
2019-06-26T11:35:48.218Z,56000.00
2019-06-26T11:37:02.674Z,55328.00
2019-06-26T11:37:48.254Z,51328.00
2019-06-26T11:38:48.258Z,51616.00
2019-06-26T11:39:48.273Z,52832.00
2019-06-26T11:40:48.287Z,54240.00
2019-06-26T11:41:48.301Z,53824.00
2019-06-26T11:42:48.320Z,51968.00
2019-06-26T11:43:48.328Z,50176.00
2019-06-26T11:44:48.366Z,47968.00
2019-06-26T11:45:48.532Z,49024.00
2019-06-26T11:46:48.371Z,48768.00
2019-06-26T11:47:48.402Z,47904.00
2019-06-26T11:48:48.400Z,47232.00
2019-06-26T11:49:59.287Z,47936.00
2019-06-26T11:50:48.429Z,48320.00
2019-06-26T11:51:48.440Z,46720.00
2019-06-26T11:52:48.456Z,46496.00
2019-06-26T11:53:48.473Z,46688.00
2019-06-26T11:55:01.284Z,45632.00
2019-06-26T11:55:48.496Z,45152.00
2019-06-26T11:56:48.509Z,46624.00
2019-06-26T11:57:48.524Z,45952.00
2019-06-26T11:58:48.538Z,44640.00
2019-06-26T11:59:48.550Z,45184.00
2019-06-26T12:00:48.584Z,45664.00
2019-06-26T12:01:48.579Z,44704.00
2019-06-26T12:02:48.593Z,45536.00
2019-06-26T12:03:48.739Z,44928.00
2019-06-26T12:04:48.626Z,45312.00
2019-06-26T12:05:48.635Z,45696.00
2019-06-26T12:06:48.647Z,46368.00
2019-06-26T12:07:48.662Z,45632.00
2019-06-26T12:08:48.749Z,45568.00
2019-06-26T12:09:48.810Z,45536.00
2019-06-26T12:10:48.703Z,44960.00
2019-06-26T12:11:48.715Z,47552.00
2019-06-26T12:12:48.728Z,46560.00
2019-06-26T12:13:48.898Z,47104.00
2019-06-26T12:14:48.758Z,46848.00